createdAt,value
2018-08-19T00:00:28.763Z,64.93
2018-08-19T00:02:59.487Z,65.28
2018-08-19T00:05:27.091Z,65.38
2018-08-19T00:07:54.695Z,65.69
2018-08-19T00:10:45.421Z,65.84
2018-08-19T00:13:12.984Z,65.39
2018-08-19T00:15:40.942Z,65.71
2018-08-19T00:18:10.134Z,65.23
2018-08-19T00:20:37.759Z,64.86
2018-08-19T00:23:05.666Z,65.71
2018-08-19T00:25:35.995Z,65.32
2018-08-19T00:28:04.187Z,64.79
2018-08-19T00:30:31.998Z,64.96
2018-08-19T00:33:00.789Z,64.21
2018-08-19T00:35:29.714Z,64.71
2018-08-19T00:37:57.650Z,64.78
2018-08-19T00:40:25.175Z,65.03
2018-08-19T00:42:52.790Z,64.30
2018-08-19T00:45:20.372Z,64.94
2018-08-19T00:47:49.302Z,65.44
2018-08-19T00:50:17.567Z,65.86
2018-08-19T00:52:45.119Z,66.05
2018-08-19T00:55:12.735Z,66.66
2018-08-19T00:57:43.293Z,66.35
2018-08-19T01:00:10.823Z,66.64
2018-08-19T01:02:38.399Z,66.26
2018-08-19T01:05:06.019Z,65.02
2018-08-19T01:07:34.897Z,66.03
2018-08-19T01:10:02.753Z,66.52
2018-08-19T01:12:30.319Z,66.36
2018-08-19T01:14:57.891Z,66.28
2018-08-19T01:17:31.904Z,66.23
2018-08-19T01:20:02.743Z,66.10
2018-08-19T01:22:32.082Z,66.27
2018-08-19T01:24:59.638Z,66.18
2018-08-19T01:27:27.228Z,66.42
2018-08-19T01:29:54.768Z,65.66
2018-08-19T01:32:22.333Z,66.21
2018-08-19T01:34:49.866Z,65.88
2018-08-19T01:37:18.082Z,65.87
2018-08-19T01:39:45.711Z,66.26
2018-08-19T01:42:13.277Z,66.32
2018-08-19T01:44:42.835Z,66.46
2018-08-19T01:47:10.350Z,66.36
2018-08-19T01:49:37.914Z,66.42
2018-08-19T01:52:05.513Z,66.22
2018-08-19T01:54:33.034Z,66.38
2018-08-19T01:57:01.519Z,66.24
2018-08-19T01:59:30.649Z,66.24
2018-08-19T02:01:59.579Z,66.55
2018-08-19T02:04:27.177Z,66.23
2018-08-19T02:06:54.749Z,66.43
2018-08-19T02:09:22.478Z,66.53
2018-08-19T02:11:53.374Z,66.47
2018-08-19T02:14:21.655Z,66.79
2018-08-19T02:16:49.895Z,67.15
2018-08-19T02:19:17.456Z,67.41
2018-08-19T02:21:45.739Z,67.37
2018-08-19T02:24:13.715Z,67.07
2018-08-19T02:26:41.301Z,67.81
2018-08-19T02:29:20.223Z,68.12
2018-08-19T02:31:47.753Z,68.40
2018-08-19T02:34:18.247Z,68.23
2018-08-19T02:36:45.824Z,68.89
2018-08-19T02:39:13.359Z,68.69
2018-08-19T02:41:45.247Z,68.93
2018-08-19T02:44:13.918Z,68.37
2018-08-19T02:46:41.464Z,68.82
2018-08-19T02:49:09.002Z,68.39
2018-08-19T02:51:36.556Z,68.73
2018-08-19T02:54:04.127Z,68.77
2018-08-19T02:56:32.226Z,68.96
2018-08-19T02:58:59.754Z,69.36
2018-08-19T03:01:27.290Z,69.75
2018-08-19T03:03:55.161Z,69.73
2018-08-19T03:06:22.706Z,69.74
2018-08-19T03:08:55.592Z,69.60
2018-08-19T03:11:23.130Z,70.20
2018-08-19T03:13:50.646Z,70.03
2018-08-19T03:16:18.192Z,69.71
2018-08-19T03:18:46.503Z,70.11
2018-08-19T03:21:14.023Z,70.63
2018-08-19T03:23:41.563Z,70.92
2018-08-19T03:26:09.086Z,70.86
2018-08-19T03:28:37.658Z,71.17
2018-08-19T03:31:05.294Z,71.15
2018-08-19T03:33:32.819Z,71.04
2018-08-19T03:36:00.365Z,71.43
2018-08-19T03:38:27.930Z,71.10
2018-08-19T03:40:56.423Z,71.24
2018-08-19T03:43:24.199Z,71.12
2018-08-19T03:45:51.774Z,71.29
2018-08-19T03:48:19.293Z,71.77
2018-08-19T03:50:46.826Z,71.49
2018-08-19T03:53:14.353Z,70.76
2018-08-19T03:55:41.952Z,71.86
2018-08-19T03:58:10.341Z,71.13
2018-08-19T04:00:40.489Z,71.54
2018-08-19T04:03:20.539Z,71.79
2018-08-19T04:05:50.737Z,71.15
2018-08-19T04:08:18.284Z,71.36
2018-08-19T04:10:46.634Z,71.30
2018-08-19T04:13:24.907Z,71.15
2018-08-19T04:15:53.613Z,71.05
2018-08-19T04:18:25.998Z,71.43
2018-08-19T04:20:53.594Z,71.86
2018-08-19T04:23:21.179Z,71.73
2018-08-19T04:25:49.293Z,72.08
2018-08-19T04:28:21.297Z,71.84
2018-08-19T04:30:49.860Z,71.56
2018-08-19T04:33:18.663Z,70.98
2018-08-19T04:35:46.185Z,71.51
2018-08-19T04:38:13.733Z,71.55
2018-08-19T04:40:41.290Z,72.20
2018-08-19T04:43:08.810Z,71.65
2018-08-19T04:45:36.351Z,72.08
2018-08-19T04:48:03.934Z,71.65
2018-08-19T04:50:32.673Z,71.63
2018-08-19T04:53:00.350Z,71.81
2018-08-19T04:55:28.082Z,70.61
2018-08-19T04:57:55.637Z,70.72
2018-08-19T05:00:23.229Z,69.22
2018-08-19T05:02:50.746Z,69.82
2018-08-19T05:05:18.299Z,69.88
2018-08-19T05:07:45.846Z,69.70
2018-08-19T05:10:13.381Z,68.70
2018-08-19T05:12:41.682Z,67.95
2018-08-19T05:15:09.186Z,67.77
2018-08-19T05:17:37.130Z,67.96
2018-08-19T05:20:10.710Z,66.10
2018-08-19T05:22:38.334Z,65.71
2018-08-19T05:25:05.820Z,65.92
2018-08-19T05:27:33.352Z,65.62
2018-08-19T05:30:00.899Z,65.63
2018-08-19T05:32:28.410Z,65.38
2018-08-19T05:34:55.950Z,65.74
2018-08-19T05:37:23.471Z,65.12
2018-08-19T05:39:56.559Z,64.96
2018-08-19T05:42:24.970Z,65.00
2018-08-19T05:44:52.650Z,64.35
2018-08-19T05:47:20.182Z,63.53
2018-08-19T05:49:49.298Z,62.27
2018-08-19T05:52:22.325Z,61.62
2018-08-19T05:54:53.418Z,61.76
2018-08-19T05:57:21.904Z,62.76
2018-08-19T05:59:51.350Z,61.91
2018-08-19T06:02:28.989Z,61.44
2018-08-19T06:04:56.588Z,61.10
2018-08-19T06:07:24.127Z,60.50
2018-08-19T06:09:51.670Z,60.49
2018-08-19T06:12:19.226Z,59.03
2018-08-19T06:14:47.130Z,59.29
2018-08-19T06:17:14.682Z,58.22
2018-08-19T06:19:42.239Z,57.38
2018-08-19T06:22:10.107Z,56.97
2018-08-19T06:24:38.565Z,57.29
2018-08-19T06:27:06.109Z,56.96
2018-08-19T06:29:44.565Z,55.90
2018-08-19T06:32:15.942Z,55.45
2018-08-19T06:34:43.519Z,54.76
2018-08-19T06:37:11.234Z,54.10
2018-08-19T06:39:38.742Z,53.29
2018-08-19T06:42:06.646Z,53.71
2018-08-19T06:44:34.190Z,52.54
2018-08-19T06:47:01.849Z,52.53
2018-08-19T06:49:30.223Z,51.41
2018-08-19T06:51:57.784Z,49.57
2018-08-19T06:54:25.339Z,47.83
2018-08-19T06:56:54.504Z,47.06
2018-08-19T06:59:22.951Z,47.79
2018-08-19T07:01:50.511Z,46.59
2018-08-19T07:04:18.088Z,44.64
2018-08-19T07:06:45.630Z,43.18
2018-08-19T07:09:13.501Z,42.39
2018-08-19T07:11:47.543Z,41.40
2018-08-19T07:14:15.107Z,40.60
2018-08-19T07:16:42.667Z,39.43
2018-08-19T07:19:10.801Z,38.78
2018-08-19T07:21:38.395Z,36.75
2018-08-19T07:24:06.032Z,37.08
2018-08-19T07:26:33.655Z,36.35
2018-08-19T07:29:01.222Z,34.54
2018-08-19T07:31:28.976Z,34.93
2018-08-19T07:33:56.542Z,34.73
2018-08-19T07:36:24.126Z,33.03
2018-08-19T07:38:51.705Z,32.50
2018-08-19T07:41:19.269Z,31.71
2018-08-19T07:43:46.917Z,28.92
2018-08-19T07:46:14.394Z,29.00
2018-08-19T07:48:42.590Z,27.96
2018-08-19T07:51:10.137Z,29.36
2018-08-19T07:53:37.710Z,28.91
2018-08-19T07:56:05.236Z,29.29
2018-08-19T07:58:38.987Z,29.11
2018-08-19T08:01:06.551Z,28.00
2018-08-19T08:03:34.102Z,28.88
2018-08-19T08:06:01.653Z,28.09
2018-08-19T08:08:29.205Z,26.53
2018-08-19T08:10:56.853Z,27.01
2018-08-19T08:13:24.330Z,24.30
2018-08-19T08:15:54.265Z,25.13
2018-08-19T08:18:21.831Z,25.06
2018-08-19T08:20:50.529Z,23.95
2018-08-19T08:23:18.979Z,23.95
2018-08-19T08:25:46.693Z,24.25
2018-08-19T08:28:14.286Z,22.94
2018-08-19T08:30:41.820Z,23.79
2018-08-19T08:33:09.642Z,23.23
2018-08-19T08:35:41.690Z,23.60
2018-08-19T08:38:11.153Z,22.77
2018-08-19T08:40:39.136Z,21.88
2018-08-19T08:43:07.482Z,22.68
2018-08-19T08:45:39.030Z,22.70
2018-08-19T08:48:07.081Z,24.25
2018-08-19T08:50:34.667Z,25.20
2018-08-19T08:53:02.264Z,24.31
2018-08-19T08:55:30.064Z,23.44
2018-08-19T08:57:57.631Z,23.06
2018-08-19T09:00:25.212Z,23.37
2018-08-19T09:02:52.840Z,23.41
2018-08-19T09:05:20.427Z,23.89
2018-08-19T09:07:47.999Z,23.48
2018-08-19T09:10:15.579Z,23.57
2018-08-19T09:12:45.204Z,23.92
2018-08-19T09:15:12.822Z,23.66
2018-08-19T09:17:40.415Z,22.86
2018-08-19T09:20:09.618Z,22.02
2018-08-19T09:22:37.226Z,23.26
2018-08-19T09:25:05.674Z,22.67
2018-08-19T09:27:33.654Z,21.23
2018-08-19T09:30:01.223Z,21.41
2018-08-19T09:32:28.757Z,21.02
2018-08-19T09:34:56.351Z,20.99
2018-08-19T09:37:23.915Z,21.53
2018-08-19T09:39:51.500Z,21.03
2018-08-19T09:42:21.318Z,20.85
2018-08-19T09:44:48.919Z,20.28
2018-08-19T09:47:16.521Z,20.47
2018-08-19T09:49:45.062Z,20.62
2018-08-19T09:52:12.673Z,20.36
2018-08-19T09:54:40.302Z,20.77
2018-08-19T09:57:08.186Z,19.77
2018-08-19T09:59:36.107Z,19.35
2018-08-19T10:02:05.970Z,19.75
2018-08-19T10:04:33.818Z,18.86
2018-08-19T10:07:11.434Z,18.95
2018-08-19T10:09:39.154Z,17.98
2018-08-19T10:12:06.939Z,18.58
2018-08-19T10:14:34.613Z,19.73
2018-08-19T10:17:02.206Z,19.93
2018-08-19T10:19:29.755Z,19.60
2018-08-19T10:21:57.372Z,20.39
2018-08-19T10:24:27.570Z,20.12
2018-08-19T10:26:55.784Z,21.88
2018-08-19T10:29:23.438Z,23.22
2018-08-19T10:31:51.601Z,22.87
2018-08-19T10:34:23.882Z,22.55
2018-08-19T10:36:51.410Z,24.11
2018-08-19T10:39:18.989Z,24.44
2018-08-19T10:41:46.836Z,24.51
2018-08-19T10:44:14.402Z,23.48
2018-08-19T10:46:42.556Z,23.36
2018-08-19T10:49:10.650Z,22.66
2018-08-19T10:51:40.223Z,22.39
2018-08-19T10:54:07.834Z,22.43
2018-08-19T10:56:35.390Z,22.31
2018-08-19T10:59:03.047Z,21.57
2018-08-19T11:01:30.687Z,21.28
2018-08-19T11:03:58.626Z,21.04
2018-08-19T11:06:26.175Z,22.13
2018-08-19T11:08:54.905Z,21.46
2018-08-19T11:11:22.778Z,21.85
2018-08-19T11:13:50.356Z,22.32
2018-08-19T11:16:17.922Z,23.79
2018-08-19T11:18:46.684Z,24.05
2018-08-19T11:21:23.226Z,25.30
2018-08-19T11:23:50.851Z,25.05
2018-08-19T11:26:18.445Z,24.84
2018-08-19T11:28:50.436Z,25.11
2018-08-19T11:31:23.914Z,25.32
2018-08-19T11:33:52.067Z,25.13
2018-08-19T11:36:20.342Z,24.35
2018-08-19T11:38:48.739Z,25.96
2018-08-19T11:41:16.507Z,25.63
2018-08-19T11:43:45.185Z,26.39
2018-08-19T11:46:12.975Z,26.76
2018-08-19T11:48:41.178Z,26.69
2018-08-19T11:51:08.861Z,27.30
2018-08-19T11:53:36.506Z,27.89
2018-08-19T11:56:04.238Z,27.32
2018-08-19T11:58:37.470Z,27.86
2018-08-19T12:01:12.655Z,27.68
2018-08-19T12:03:57.123Z,27.09
2018-08-19T12:06:27.138Z,27.84
2018-08-19T12:08:56.000Z,28.33
2018-08-19T12:14:04.234Z,28.86
2018-08-19T12:16:35.473Z,30.10
2018-08-19T12:19:08.566Z,29.57
2018-08-19T12:21:42.751Z,30.26
2018-08-19T12:24:16.814Z,30.59
2018-08-19T12:26:44.385Z,30.51
2018-08-19T12:29:12.215Z,29.63
2018-08-19T12:31:39.793Z,29.57
2018-08-19T12:34:07.355Z,29.76
2018-08-19T12:36:34.911Z,29.51
2018-08-19T12:39:03.072Z,29.91
2018-08-19T12:41:31.723Z,29.53
2018-08-19T12:43:59.315Z,29.98
2018-08-19T12:46:27.005Z,29.64
2018-08-19T12:48:54.748Z,29.80
2018-08-19T12:51:22.391Z,29.86
2018-08-19T12:53:49.939Z,30.56
2018-08-19T12:56:17.506Z,30.08
2018-08-19T12:58:45.059Z,30.02
2018-08-19T13:01:12.611Z,29.63
2018-08-19T13:03:40.223Z,29.53
2018-08-19T13:06:08.435Z,28.71
2018-08-19T13:08:36.710Z,29.65
2018-08-19T13:11:05.125Z,29.31
2018-08-19T13:13:33.086Z,29.36
2018-08-19T13:16:00.691Z,28.71
2018-08-19T13:18:33.966Z,28.60
2018-08-19T13:21:07.593Z,28.01
2018-08-19T13:23:35.134Z,29.18
2018-08-19T13:26:02.753Z,30.99
2018-08-19T13:28:30.498Z,31.30
2018-08-19T13:30:58.006Z,31.28
2018-08-19T13:33:25.954Z,30.97
2018-08-19T13:35:53.599Z,30.79
2018-08-19T13:38:30.664Z,30.96
2018-08-19T13:40:58.564Z,31.97
2018-08-19T13:43:26.116Z,31.67
2018-08-19T13:45:53.995Z,32.82
2018-08-19T13:48:21.768Z,32.76
2018-08-19T13:50:49.324Z,32.50
2018-08-19T13:53:16.911Z,32.40
2018-08-19T13:55:44.498Z,33.31
2018-08-19T13:58:12.030Z,32.76
2018-08-19T14:00:39.601Z,33.11
2018-08-19T14:03:07.413Z,33.57
2018-08-19T14:05:34.989Z,33.41
2018-08-19T14:08:02.614Z,32.92
2018-08-19T14:10:30.169Z,32.75
2018-08-19T14:12:57.734Z,33.57
2018-08-19T14:15:25.311Z,34.00
2018-08-19T14:17:53.487Z,33.89
2018-08-19T14:20:21.092Z,34.49
2018-08-19T14:22:48.929Z,34.14
2018-08-19T14:25:16.475Z,33.77
2018-08-19T14:27:44.138Z,33.05
2018-08-19T14:30:12.141Z,34.04
2018-08-19T14:32:40.162Z,33.04
2018-08-19T14:35:08.053Z,34.02
2018-08-19T14:37:35.614Z,33.38
2018-08-19T14:40:03.944Z,33.04
2018-08-19T14:42:31.526Z,33.96
2018-08-19T14:44:59.498Z,33.29
2018-08-19T14:47:27.511Z,33.78
2018-08-19T14:49:55.861Z,33.75
2018-08-19T14:52:23.484Z,33.16
2018-08-19T14:54:51.065Z,34.19
2018-08-19T14:57:18.639Z,33.98
2018-08-19T14:59:46.227Z,34.00
2018-08-19T15:02:14.080Z,33.60
2018-08-19T15:04:42.208Z,33.52
2018-08-19T15:07:10.336Z,33.10
2018-08-19T15:09:38.931Z,33.52
2018-08-19T15:12:12.914Z,33.67
2018-08-19T15:14:40.520Z,33.04
2018-08-19T15:17:08.958Z,33.80
2018-08-19T15:19:45.873Z,33.74
2018-08-19T15:22:13.427Z,34.45
2018-08-19T15:24:41.005Z,33.81
2018-08-19T15:27:08.555Z,34.05
2018-08-19T15:29:39.714Z,34.26
2018-08-19T15:32:07.521Z,34.40
2018-08-19T15:34:35.040Z,34.28
2018-08-19T15:37:02.628Z,34.29
2018-08-19T15:39:30.482Z,34.73
2018-08-19T15:41:58.042Z,34.06
2018-08-19T15:44:25.614Z,33.63
2018-08-19T15:46:53.373Z,34.38
2018-08-19T15:49:21.545Z,34.27
2018-08-19T15:51:49.122Z,34.17
2018-08-19T15:54:16.989Z,34.09
2018-08-19T15:56:44.570Z,33.92
2018-08-19T15:59:12.119Z,33.64
2018-08-19T16:01:40.076Z,33.43
2018-08-19T16:04:28.111Z,33.56
2018-08-19T16:06:55.731Z,34.52
2018-08-19T16:09:24.609Z,34.24
2018-08-19T16:11:53.019Z,34.12
2018-08-19T16:14:22.279Z,34.28
2018-08-19T16:16:50.015Z,33.99
2018-08-19T16:19:17.582Z,33.72
2018-08-19T16:21:46.329Z,34.12
2018-08-19T16:24:13.906Z,34.49
2018-08-19T16:26:41.522Z,34.95
2018-08-19T16:29:09.127Z,35.55
2018-08-19T16:31:36.734Z,35.33
2018-08-19T16:34:04.512Z,36.00
2018-08-19T16:36:32.065Z,35.84
2018-08-19T16:38:59.722Z,36.22
2018-08-19T16:41:27.833Z,36.20
2018-08-19T16:43:55.575Z,35.78
2018-08-19T16:46:23.259Z,36.20
2018-08-19T16:48:50.950Z,35.91
2018-08-19T16:51:18.620Z,35.96
2018-08-19T16:53:46.490Z,35.95
2018-08-19T16:56:14.092Z,35.95
2018-08-19T16:58:41.876Z,37.23
2018-08-19T17:01:09.729Z,36.45
2018-08-19T17:03:38.085Z,36.05
2018-08-19T17:06:07.226Z,36.54
2018-08-19T17:08:34.843Z,36.49
2018-08-19T17:11:02.436Z,35.86
2018-08-19T17:13:30.043Z,36.37
2018-08-19T17:15:58.396Z,35.91
2018-08-19T17:18:25.938Z,35.79
2018-08-19T17:20:53.535Z,36.32
2018-08-19T17:23:22.319Z,37.16
2018-08-19T17:25:50.320Z,37.55
2018-08-19T17:28:21.800Z,37.50
2018-08-19T17:30:50.570Z,36.96
2018-08-19T17:33:19.224Z,37.09
2018-08-19T17:35:48.032Z,37.74
2018-08-19T17:38:16.841Z,37.47
2018-08-19T17:40:44.431Z,37.25
2018-08-19T17:43:11.948Z,37.30
2018-08-19T17:45:39.600Z,37.80
2018-08-19T17:48:07.371Z,37.69
2018-08-19T17:50:36.627Z,38.29
2018-08-19T17:53:04.261Z,38.13
2018-08-19T17:55:31.879Z,38.74
2018-08-19T17:57:59.825Z,38.46
2018-08-19T18:00:27.938Z,38.79
2018-08-19T18:02:55.491Z,38.32
2018-08-19T18:05:23.104Z,37.96
2018-08-19T18:07:52.758Z,38.11
2018-08-19T18:10:20.345Z,37.72
2018-08-19T18:12:48.291Z,37.67
2018-08-19T18:15:15.909Z,38.27
2018-08-19T18:17:56.568Z,38.47
2018-08-19T18:20:24.907Z,38.43
2018-08-19T18:22:53.764Z,37.95
2018-08-19T18:25:21.401Z,37.88
2018-08-19T18:27:48.998Z,38.42
2018-08-19T18:30:23.418Z,38.61
2018-08-19T18:32:51.314Z,38.91
2018-08-19T18:35:19.801Z,39.23
2018-08-19T18:37:47.426Z,39.55
2018-08-19T18:40:22.456Z,39.38
2018-08-19T18:42:50.444Z,39.85
2018-08-19T18:45:18.023Z,39.64
2018-08-19T18:47:51.570Z,39.80
2018-08-19T18:50:21.800Z,40.19
2018-08-19T18:52:49.373Z,40.51
2018-08-19T18:55:17.027Z,40.82
2018-08-19T18:57:55.683Z,41.25
2018-08-19T19:00:24.772Z,40.99
2018-08-19T19:02:57.536Z,41.55
2018-08-19T19:05:30.954Z,41.86
2018-08-19T19:08:08.261Z,41.57
2018-08-19T19:10:36.586Z,41.92
2018-08-19T19:13:04.943Z,42.13
2018-08-19T19:15:37.068Z,41.71
2018-08-19T19:18:06.317Z,42.05
2018-08-19T19:20:33.949Z,42.74
2018-08-19T19:23:02.462Z,42.52
2018-08-19T19:25:37.851Z,42.66
2018-08-19T19:28:05.873Z,42.98
2018-08-19T19:30:33.656Z,43.11
2018-08-19T19:33:09.633Z,43.55
2018-08-19T19:35:37.475Z,44.16
2018-08-19T19:38:05.731Z,44.34
2018-08-19T19:40:33.388Z,44.24
2018-08-19T19:43:01.258Z,44.81
2018-08-19T19:45:30.080Z,45.54
2018-08-19T19:47:57.721Z,45.69
2018-08-19T19:50:25.315Z,45.90
2018-08-19T19:52:57.877Z,45.94
2018-08-19T19:55:26.028Z,46.63
2018-08-19T19:57:53.790Z,45.97
2018-08-19T20:00:21.338Z,45.53
2018-08-19T20:02:48.928Z,46.24
2018-08-19T20:05:23.107Z,46.86
2018-08-19T20:07:51.917Z,47.06
2018-08-19T20:10:25.823Z,47.30
2018-08-19T20:12:53.506Z,48.93
2018-08-19T20:15:21.073Z,49.38
2018-08-19T20:17:48.682Z,49.27
2018-08-19T20:20:16.227Z,48.91
2018-08-19T20:22:44.061Z,48.61
2018-08-19T20:25:12.606Z,49.42
2018-08-19T20:27:40.230Z,49.09
2018-08-19T20:30:07.816Z,49.75
2018-08-19T20:32:35.362Z,50.80
2018-08-19T20:35:03.270Z,51.34
2018-08-19T20:37:35.671Z,50.35
2018-08-19T20:40:03.792Z,50.94
2018-08-19T20:42:31.328Z,51.30
2018-08-19T20:44:58.859Z,50.64
2018-08-19T20:47:26.446Z,51.22
2018-08-19T20:49:54.002Z,51.46
2018-08-19T20:52:54.746Z,50.79
2018-08-19T20:55:22.322Z,51.47
2018-08-19T20:57:49.883Z,51.47
2018-08-19T21:00:17.490Z,51.24
2018-08-19T21:02:45.035Z,51.72
2018-08-19T21:05:12.598Z,52.09
2018-08-19T21:07:41.588Z,51.91
2018-08-19T21:10:09.122Z,52.25
2018-08-19T21:12:36.663Z,52.44
2018-08-19T21:15:04.328Z,52.59
2018-08-19T21:17:32.223Z,52.29
2018-08-19T21:19:59.894Z,51.99
2018-08-19T21:22:27.512Z,52.58
2018-08-19T21:24:55.055Z,52.43
2018-08-19T21:27:23.194Z,52.62
2018-08-19T21:29:50.830Z,52.61
2018-08-19T21:32:18.573Z,53.46
2018-08-19T21:34:46.184Z,53.44
2018-08-19T21:37:15.578Z,53.08
2018-08-19T21:39:43.126Z,53.72
2018-08-19T21:42:10.679Z,54.33
2018-08-19T21:44:38.222Z,54.86
2018-08-19T21:47:05.794Z,54.36
2018-08-19T21:49:33.382Z,54.16
2018-08-19T21:52:00.991Z,54.09
2018-08-19T21:54:28.534Z,54.03
2018-08-19T21:56:56.078Z,54.27
2018-08-19T21:59:24.354Z,55.19
2018-08-19T22:01:59.658Z,55.58
2018-08-19T22:04:27.879Z,55.86
2018-08-19T22:06:55.492Z,55.63
2018-08-19T22:09:28.674Z,55.69
2018-08-19T22:11:57.526Z,55.81
2018-08-19T22:14:25.416Z,55.63
2018-08-19T22:16:58.679Z,55.71
2018-08-19T22:19:26.326Z,55.59
2018-08-19T22:21:53.839Z,55.46
2018-08-19T22:24:21.402Z,56.80
2018-08-19T22:26:48.949Z,56.54
2018-08-19T22:29:19.437Z,56.65
2018-08-19T22:31:48.470Z,57.56
2018-08-19T22:34:16.026Z,57.17
2018-08-19T22:36:43.580Z,55.70
2018-08-19T22:39:11.427Z,56.54
2018-08-19T22:41:38.967Z,56.82
2018-08-19T22:44:06.497Z,56.23
2018-08-19T22:46:34.175Z,56.56
2018-08-19T22:49:01.694Z,56.25
2018-08-19T22:51:29.814Z,56.71
2018-08-19T22:53:57.380Z,57.22
2018-08-19T22:56:24.904Z,57.26
2018-08-19T22:58:52.465Z,57.46
2018-08-19T23:01:20.164Z,57.29
2018-08-19T23:03:48.512Z,56.97
2018-08-19T23:06:16.086Z,57.75
2018-08-19T23:08:43.619Z,57.71
2018-08-19T23:11:11.154Z,57.76
2018-08-19T23:13:44.269Z,57.86
2018-08-19T23:16:12.622Z,57.81
2018-08-19T23:18:40.961Z,57.58
2018-08-19T23:21:08.823Z,57.96
2018-08-19T23:23:36.398Z,57.98
2018-08-19T23:26:04.355Z,58.64
2018-08-19T23:28:31.878Z,58.30
2018-08-19T23:30:59.460Z,58.85
2018-08-19T23:33:26.995Z,57.85
2018-08-19T23:35:54.538Z,58.40
2018-08-19T23:38:22.120Z,57.92
2018-08-19T23:40:49.690Z,58.18
2018-08-19T23:43:17.563Z,58.21
2018-08-19T23:45:45.143Z,58.86
2018-08-19T23:48:12.678Z,59.34
2018-08-19T23:50:40.302Z,59.14
2018-08-19T23:53:09.226Z,58.65
2018-08-19T23:55:37.334Z,58.76
2018-08-19T23:58:04.853Z,58.21
